sensor_id;sensor_type;location;lat;lon;timestamp;pressure;altitude;pressure_sealevel;temperature;humidity
75991;BME280;64673;52.276;10.560;2023-07-13T00:00:27;100489.84;;;16.42;79.80
75991;BME280;64673;52.276;10.560;2023-07-13T00:02:53;100496.50;;;16.36;80.73
75991;BME280;64673;52.276;10.560;2023-07-13T00:05:20;100497.91;;;16.33;80.19
75991;BME280;64673;52.276;10.560;2023-07-13T00:07:45;100504.41;;;16.46;81.53
75991;BME280;64673;52.276;10.560;2023-07-13T00:10:11;100504.31;;;16.51;80.68
75991;BME280;64673;52.276;10.560;2023-07-13T00:12:37;100510.47;;;16.43;79.95
75991;BME280;64673;52.276;10.560;2023-07-13T00:15:09;100513.03;;;16.39;81.78
75991;BME280;64673;52.276;10.560;2023-07-13T00:17:36;100518.16;;;16.41;81.17
75991;BME280;64673;52.276;10.560;2023-07-13T00:20:04;100514.00;;;16.43;80.93
75991;BME280;64673;52.276;10.560;2023-07-13T00:22:30;100519.28;;;16.40;80.53
75991;BME280;64673;52.276;10.560;2023-07-13T00:24:55;100516.56;;;16.40;80.99
75991;BME280;64673;52.276;10.560;2023-07-13T00:27:24;100524.28;;;16.46;80.18
75991;BME280;64673;52.276;10.560;2023-07-13T00:29:51;100521.50;;;16.38;80.74
75991;BME280;64673;52.276;10.560;2023-07-13T00:32:18;100517.09;;;16.28;81.14
75991;BME280;64673;52.276;10.560;2023-07-13T00:34:44;100507.03;;;16.29;80.82
75991;BME280;64673;52.276;10.560;2023-07-13T00:37:09;100511.59;;;16.20;81.69
75991;BME280;64673;52.276;10.560;2023-07-13T00:39:35;100507.28;;;16.19;80.77
75991;BME280;64673;52.276;10.560;2023-07-13T00:42:01;100514.19;;;16.25;81.36
75991;BME280;64673;52.276;10.560;2023-07-13T00:44:27;100516.31;;;16.28;80.93
75991;BME280;64673;52.276;10.560;2023-07-13T00:46:53;100516.91;;;16.25;81.03
75991;BME280;64673;52.276;10.560;2023-07-13T00:49:23;100519.25;;;16.18;80.65
75991;BME280;64673;52.276;10.560;2023-07-13T00:51:50;100524.41;;;16.19;81.54
75991;BME280;64673;52.276;10.560;2023-07-13T00:54:33;100529.13;;;16.14;81.31
75991;BME280;64673;52.276;10.560;2023-07-13T00:57:02;100532.38;;;16.38;80.24
75991;BME280;64673;52.276;10.560;2023-07-13T00:59:29;100526.19;;;16.46;78.87
75991;BME280;64673;52.276;10.560;2023-07-13T01:01:55;100530.28;;;16.35;79.25
75991;BME280;64673;52.276;10.560;2023-07-13T01:04:24;100517.59;;;16.30;80.61
75991;BME280;64673;52.276;10.560;2023-07-13T01:06:49;100515.56;;;16.36;79.99
75991;BME280;64673;52.276;10.560;2023-07-13T01:09:15;100527.25;;;16.59;78.14
75991;BME280;64673;52.276;10.560;2023-07-13T01:11:41;100523.47;;;16.46;79.63
75991;BME280;64673;52.276;10.560;2023-07-13T01:14:08;100521.50;;;16.38;79.34
75991;BME280;64673;52.276;10.560;2023-07-13T01:16:35;100523.84;;;16.53;79.60
75991;BME280;64673;52.276;10.560;2023-07-13T01:19:01;100522.66;;;16.45;79.72
75991;BME280;64673;52.276;10.560;2023-07-13T01:21:31;100519.19;;;16.54;79.83
75991;BME280;64673;52.276;10.560;2023-07-13T01:23:58;100522.13;;;16.35;80.59
75991;BME280;64673;52.276;10.560;2023-07-13T01:26:23;100526.88;;;16.29;80.84
75991;BME280;64673;52.276;10.560;2023-07-13T01:28:49;100521.97;;;16.18;80.51
75991;BME280;64673;52.276;10.560;2023-07-13T01:31:14;100518.00;;;16.01;81.56
75991;BME280;64673;52.276;10.560;2023-07-13T01:33:40;100516.81;;;15.94;81.49
75991;BME280;64673;52.276;10.560;2023-07-13T01:36:07;100529.72;;;15.88;81.88
75991;BME280;64673;52.276;10.560;2023-07-13T01:38:34;100519.25;;;15.82;82.52
75991;BME280;64673;52.276;10.560;2023-07-13T01:41:00;100525.28;;;15.79;82.18
75991;BME280;64673;52.276;10.560;2023-07-13T01:43:25;100520.66;;;15.52;83.84
75991;BME280;64673;52.276;10.560;2023-07-13T01:45:51;100522.56;;;15.37;84.55
75991;BME280;64673;52.276;10.560;2023-07-13T01:48:16;100528.13;;;15.32;84.49
75991;BME280;64673;52.276;10.560;2023-07-13T01:50:42;100525.09;;;15.20;85.63
75991;BME280;64673;52.276;10.560;2023-07-13T01:53:07;100525.50;;;15.27;84.59
75991;BME280;64673;52.276;10.560;2023-07-13T01:55:33;100509.59;;;15.07;85.51
75991;BME280;64673;52.276;10.560;2023-07-13T01:57:58;100518.84;;;15.06;85.60
75991;BME280;64673;52.276;10.560;2023-07-13T02:00:24;100523.06;;;14.98;86.09
75991;BME280;64673;52.276;10.560;2023-07-13T02:02:50;100516.78;;;14.84;87.33
75991;BME280;64673;52.276;10.560;2023-07-13T02:05:15;100519.03;;;14.82;86.74
75991;BME280;64673;52.276;10.560;2023-07-13T02:07:41;100525.50;;;14.68;87.23
75991;BME280;64673;52.276;10.560;2023-07-13T02:10:08;100526.53;;;14.72;87.75
75991;BME280;64673;52.276;10.560;2023-07-13T02:12:34;100524.41;;;14.69;87.29
75991;BME280;64673;52.276;10.560;2023-07-13T02:14:59;100532.97;;;14.76;87.08
75991;BME280;64673;52.276;10.560;2023-07-13T02:17:26;100529.41;;;14.61;87.73
75991;BME280;64673;52.276;10.560;2023-07-13T02:19:52;100526.25;;;14.54;87.77
75991;BME280;64673;52.276;10.560;2023-07-13T02:22:17;100527.19;;;14.63;87.60
75991;BME280;64673;52.276;10.560;2023-07-13T02:24:43;100535.59;;;14.48;88.24
75991;BME280;64673;52.276;10.560;2023-07-13T02:27:08;100533.47;;;14.45;88.45
75991;BME280;64673;52.276;10.560;2023-07-13T02:29:33;100544.31;;;14.45;88.65
75991;BME280;64673;52.276;10.560;2023-07-13T02:31:59;100551.56;;;14.31;89.10
75991;BME280;64673;52.276;10.560;2023-07-13T02:34:25;100543.88;;;14.38;88.58
75991;BME280;64673;52.276;10.560;2023-07-13T02:36:50;100538.84;;;14.50;87.86
75991;BME280;64673;52.276;10.560;2023-07-13T02:39:16;100546.66;;;14.52;88.43
75991;BME280;64673;52.276;10.560;2023-07-13T02:41:42;100537.84;;;14.60;88.44
75991;BME280;64673;52.276;10.560;2023-07-13T02:44:07;100530.19;;;14.62;88.27
75991;BME280;64673;52.276;10.560;2023-07-13T02:46:35;100532.97;;;14.76;87.42
75991;BME280;64673;52.276;10.560;2023-07-13T02:49:01;100517.94;;;14.64;88.21
75991;BME280;64673;52.276;10.560;2023-07-13T02:51:27;100517.78;;;14.75;87.06
75991;BME280;64673;52.276;10.560;2023-07-13T02:53:52;100515.69;;;14.72;87.38
75991;BME280;64673;52.276;10.560;2023-07-13T02:56:22;100508.63;;;14.71;87.13
75991;BME280;64673;52.276;10.560;2023-07-13T02:58:47;100516.78;;;14.71;88.25
75991;BME280;64673;52.276;10.560;2023-07-13T03:01:14;100516.38;;;14.77;87.17
75991;BME280;64673;52.276;10.560;2023-07-13T03:03:45;100522.69;;;14.73;88.18
75991;BME280;64673;52.276;10.560;2023-07-13T03:06:11;100520.31;;;14.52;89.03
75991;BME280;64673;52.276;10.560;2023-07-13T03:08:36;100502.28;;;14.61;88.55
75991;BME280;64673;52.276;10.560;2023-07-13T03:11:07;100514.22;;;14.60;87.88
75991;BME280;64673;52.276;10.560;2023-07-13T03:13:33;100506.56;;;14.62;88.04
75991;BME280;64673;52.276;10.560;2023-07-13T03:15:58;100500.75;;;14.37;88.01
75991;BME280;64673;52.276;10.560;2023-07-13T03:18:27;100507.34;;;14.30;89.34
75991;BME280;64673;52.276;10.560;2023-07-13T03:20:52;100497.81;;;14.33;89.31
75991;BME280;64673;52.276;10.560;2023-07-13T03:23:18;100507.22;;;14.22;89.41
75991;BME280;64673;52.276;10.560;2023-07-13T03:25:44;100507.88;;;14.14;90.46
75991;BME280;64673;52.276;10.560;2023-07-13T03:28:10;100502.03;;;14.07;90.50
75991;BME280;64673;52.276;10.560;2023-07-13T03:30:36;100502.75;;;13.93;91.05
75991;BME280;64673;52.276;10.560;2023-07-13T03:33:01;100509.66;;;14.05;90.52
75991;BME280;64673;52.276;10.560;2023-07-13T03:35:27;100515.75;;;13.97;90.90
75991;BME280;64673;52.276;10.560;2023-07-13T03:37:52;100517.25;;;14.03;90.59
75991;BME280;64673;52.276;10.560;2023-07-13T03:40:17;100513.75;;;14.02;90.78
75991;BME280;64673;52.276;10.560;2023-07-13T03:42:43;100517.34;;;13.98;90.76
75991;BME280;64673;52.276;10.560;2023-07-13T03:45:08;100525.69;;;14.01;91.01
75991;BME280;64673;52.276;10.560;2023-07-13T03:47:34;100517.13;;;14.13;90.08
75991;BME280;64673;52.276;10.560;2023-07-13T03:50:00;100534.34;;;14.22;89.56
75991;BME280;64673;52.276;10.560;2023-07-13T03:52:26;100535.03;;;14.65;86.42
75991;BME280;64673;52.276;10.560;2023-07-13T03:54:51;100546.97;;;14.83;85.43
75991;BME280;64673;52.276;10.560;2023-07-13T03:57:19;100545.81;;;15.02;83.87
75991;BME280;64673;52.276;10.560;2023-07-13T03:59:44;100545.91;;;15.11;83.71
75991;BME280;64673;52.276;10.560;2023-07-13T04:02:10;100543.81;;;14.76;86.21
75991;BME280;64673;52.276;10.560;2023-07-13T04:04:35;100541.44;;;14.88;85.58
75991;BME280;64673;52.276;10.560;2023-07-13T04:07:01;100534.97;;;15.30;82.40
75991;BME280;64673;52.276;10.560;2023-07-13T04:09:26;100551.66;;;15.37;82.45
75991;BME280;64673;52.276;10.560;2023-07-13T04:11:51;100551.56;;;15.28;83.06
75991;BME280;64673;52.276;10.560;2023-07-13T04:14:17;100558.56;;;15.62;80.26
75991;BME280;64673;52.276;10.560;2023-07-13T04:16:43;100543.16;;;15.57;81.13
75991;BME280;64673;52.276;10.560;2023-07-13T04:19:09;100553.09;;;15.76;79.59
75991;BME280;64673;52.276;10.560;2023-07-13T04:21:36;100565.28;;;15.78;80.25
75991;BME280;64673;52.276;10.560;2023-07-13T04:24:02;100561.88;;;15.59;80.88
75991;BME280;64673;52.276;10.560;2023-07-13T04:26:28;100561.34;;;15.70;81.70
75991;BME280;64673;52.276;10.560;2023-07-13T04:28:53;100558.75;;;15.65;81.24
75991;BME280;64673;52.276;10.560;2023-07-13T04:31:19;100574.44;;;15.82;80.07
75991;BME280;64673;52.276;10.560;2023-07-13T04:33:45;100580.69;;;15.83;80.68
75991;BME280;64673;52.276;10.560;2023-07-13T04:36:10;100570.75;;;15.78;81.04
75991;BME280;64673;52.276;10.560;2023-07-13T04:38:36;100579.75;;;16.01;79.53
75991;BME280;64673;52.276;10.560;2023-07-13T04:41:05;100579.75;;;16.01;79.87
75991;BME280;64673;52.276;10.560;2023-07-13T04:43:32;100586.13;;;15.96;79.77
75991;BME280;64673;52.276;10.560;2023-07-13T04:46:10;100584.00;;;15.93;80.97
75991;BME280;64673;52.276;10.560;2023-07-13T04:48:36;100583.50;;;15.91;81.34
75991;BME280;64673;52.276;10.560;2023-07-13T04:51:02;100595.03;;;16.10;78.19
75991;BME280;64673;52.276;10.560;2023-07-13T04:53:28;100605.19;;;16.32;77.89
75991;BME280;64673;52.276;10.560;2023-07-13T04:55:54;100594.25;;;16.46;76.95
75991;BME280;64673;52.276;10.560;2023-07-13T04:58:21;100600.06;;;16.67;75.35
75991;BME280;64673;52.276;10.560;2023-07-13T05:00:47;100595.31;;;16.72;75.08
75991;BME280;64673;52.276;10.560;2023-07-13T05:03:13;100596.16;;;16.81;74.72
75991;BME280;64673;52.276;10.560;2023-07-13T05:05:38;100597.13;;;16.86;74.81
75991;BME280;64673;52.276;10.560;2023-07-13T05:08:03;100604.13;;;17.00;74.42
75991;BME280;64673;52.276;10.560;2023-07-13T05:10:29;100601.03;;;17.15;74.91
75991;BME280;64673;52.276;10.560;2023-07-13T05:12:54;100602.00;;;17.19;73.34
75991;BME280;64673;52.276;10.560;2023-07-13T05:15:21;100599.22;;;17.11;73.50
75991;BME280;64673;52.276;10.560;2023-07-13T05:17:48;100610.75;;;17.08;74.15
75991;BME280;64673;52.276;10.560;2023-07-13T05:20:13;100608.72;;;17.13;71.97
75991;BME280;64673;52.276;10.560;2023-07-13T05:22:39;100617.00;;;17.08;73.89
75991;BME280;64673;52.276;10.560;2023-07-13T05:25:06;100604.44;;;16.99;72.96
75991;BME280;64673;52.276;10.560;2023-07-13T05:27:32;100612.00;;;17.02;73.81
75991;BME280;64673;52.276;10.560;2023-07-13T05:29:57;100613.72;;;16.98;73.91
75991;BME280;64673;52.276;10.560;2023-07-13T05:32:22;100617.31;;;17.07;74.27
75991;BME280;64673;52.276;10.560;2023-07-13T05:34:48;100612.09;;;17.19;72.91
75991;BME280;64673;52.276;10.560;2023-07-13T05:37:13;100620.31;;;17.28;73.00
75991;BME280;64673;52.276;10.560;2023-07-13T05:39:38;100614.78;;;17.41;72.61
75991;BME280;64673;52.276;10.560;2023-07-13T05:42:05;100614.97;;;17.76;71.98
75991;BME280;64673;52.276;10.560;2023-07-13T05:44:30;100614.19;;;17.84;70.52
75991;BME280;64673;52.276;10.560;2023-07-13T05:46:56;100607.31;;;17.95;71.13
75991;BME280;64673;52.276;10.560;2023-07-13T05:49:22;100618.72;;;17.97;69.49
75991;BME280;64673;52.276;10.560;2023-07-13T05:51:47;100618.25;;;18.04;68.94
75991;BME280;64673;52.276;10.560;2023-07-13T05:54:13;100618.09;;;18.09;68.26
75991;BME280;64673;52.276;10.560;2023-07-13T05:56:38;100615.88;;;18.11;68.13
75991;BME280;64673;52.276;10.560;2023-07-13T05:59:03;100623.75;;;18.21;68.93
75991;BME280;64673;52.276;10.560;2023-07-13T06:01:30;100619.91;;;18.31;69.82
75991;BME280;64673;52.276;10.560;2023-07-13T06:03:55;100617.00;;;18.18;67.49
75991;BME280;64673;52.276;10.560;2023-07-13T06:06:21;100631.47;;;18.27;68.01
75991;BME280;64673;52.276;10.560;2023-07-13T06:08:46;100630.66;;;18.18;67.25
75991;BME280;64673;52.276;10.560;2023-07-13T06:11:18;100628.09;;;18.31;65.37
75991;BME280;64673;52.276;10.560;2023-07-13T06:13:44;100634.88;;;18.42;66.24
75991;BME280;64673;52.276;10.560;2023-07-13T06:16:09;100628.59;;;18.33;65.23
75991;BME280;64673;52.276;10.560;2023-07-13T06:18:36;100632.59;;;18.35;67.41
75991;BME280;64673;52.276;10.560;2023-07-13T06:21:06;100630.16;;;18.16;66.36
75991;BME280;64673;52.276;10.560;2023-07-13T06:23:32;100634.63;;;18.12;67.56
75991;BME280;64673;52.276;10.560;2023-07-13T06:25:57;100628.53;;;18.07;67.98
75991;BME280;64673;52.276;10.560;2023-07-13T06:28:23;100637.81;;;17.97;67.95
75991;BME280;64673;52.276;10.560;2023-07-13T06:30:48;100639.06;;;17.91;68.55
75991;BME280;64673;52.276;10.560;2023-07-13T06:33:13;100636.38;;;18.00;68.12
75991;BME280;64673;52.276;10.560;2023-07-13T06:35:39;100636.53;;;18.03;68.57
75991;BME280;64673;52.276;10.560;2023-07-13T06:38:04;100635.59;;;17.99;67.74
75991;BME280;64673;52.276;10.560;2023-07-13T06:40:30;100640.09;;;18.12;68.68
75991;BME280;64673;52.276;10.560;2023-07-13T06:42:56;100642.38;;;18.27;68.55
75991;BME280;64673;52.276;10.560;2023-07-13T06:45:21;100635.00;;;18.19;66.61
75991;BME280;64673;52.276;10.560;2023-07-13T06:47:47;100642.56;;;18.31;66.90
75991;BME280;64673;52.276;10.560;2023-07-13T06:50:12;100641.56;;;18.18;67.43
75991;BME280;64673;52.276;10.560;2023-07-13T06:52:37;100645.09;;;18.27;66.83
75991;BME280;64673;52.276;10.560;2023-07-13T06:55:03;100648.34;;;18.38;67.16
75991;BME280;64673;52.276;10.560;2023-07-13T06:57:28;100646.25;;;18.44;67.59
75991;BME280;64673;52.276;10.560;2023-07-13T06:59:54;100647.03;;;18.27;66.30
75991;BME280;64673;52.276;10.560;2023-07-13T07:02:19;100657.16;;;18.44;66.96
75991;BME280;64673;52.276;10.560;2023-07-13T07:04:44;100641.97;;;18.60;66.82
75991;BME280;64673;52.276;10.560;2023-07-13T07:07:10;100645.50;;;18.78;66.66
75991;BME280;64673;52.276;10.560;2023-07-13T07:09:35;100648.22;;;18.69;66.23
75991;BME280;64673;52.276;10.560;2023-07-13T07:12:00;100663.19;;;18.80;67.03
75991;BME280;64673;52.276;10.560;2023-07-13T07:14:26;100659.47;;;18.76;64.71
75991;BME280;64673;52.276;10.560;2023-07-13T07:16:51;100657.84;;;18.75;64.45
75991;BME280;64673;52.276;10.560;2023-07-13T07:19:16;100659.97;;;18.78;65.35
75991;BME280;64673;52.276;10.560;2023-07-13T07:21:42;100649.03;;;18.70;65.51
75991;BME280;64673;52.276;10.560;2023-07-13T07:24:07;100652.25;;;18.80;64.60
75991;BME280;64673;52.276;10.560;2023-07-13T07:26:33;100653.06;;;18.72;64.65
75991;BME280;64673;52.276;10.560;2023-07-13T07:28:58;100644.69;;;18.77;64.12
75991;BME280;64673;52.276;10.560;2023-07-13T07:31:23;100657.41;;;18.82;63.21
75991;BME280;64673;52.276;10.560;2023-07-13T07:33:49;100656.75;;;18.76;62.54
75991;BME280;64673;52.276;10.560;2023-07-13T07:36:17;100652.88;;;18.77;63.58
75991;BME280;64673;52.276;10.560;2023-07-13T07:38:43;100660.75;;;18.87;63.82
75991;BME280;64673;52.276;10.560;2023-07-13T07:41:09;100650.16;;;18.94;62.67
75991;BME280;64673;52.276;10.560;2023-07-13T07:43:35;100655.28;;;19.05;62.27
75991;BME280;64673;52.276;10.560;2023-07-13T07:46:01;100659.13;;;19.21;61.83
75991;BME280;64673;52.276;10.560;2023-07-13T07:48:26;100652.81;;;19.37;61.82
75991;BME280;64673;52.276;10.560;2023-07-13T07:50:51;100649.72;;;19.56;62.00
75991;BME280;64673;52.276;10.560;2023-07-13T07:53:17;100660.00;;;19.68;60.91
75991;BME280;64673;52.276;10.560;2023-07-13T07:55:42;100646.63;;;19.66;61.68
75991;BME280;64673;52.276;10.560;2023-07-13T07:58:08;100656.13;;;19.60;60.00
75991;BME280;64673;52.276;10.560;2023-07-13T08:00:33;100651.44;;;19.69;60.48
75991;BME280;64673;52.276;10.560;2023-07-13T08:03:01;100654.09;;;19.87;59.37
75991;BME280;64673;52.276;10.560;2023-07-13T08:05:26;100659.53;;;19.57;59.29
75991;BME280;64673;52.276;10.560;2023-07-13T08:07:52;100662.91;;;19.54;58.54
75991;BME280;64673;52.276;10.560;2023-07-13T08:10:17;100657.59;;;19.58;58.53
75991;BME280;64673;52.276;10.560;2023-07-13T08:12:42;100670.16;;;19.42;58.50
75991;BME280;64673;52.276;10.560;2023-07-13T08:15:14;100662.31;;;19.49;58.41
75991;BME280;64673;52.276;10.560;2023-07-13T08:17:40;100668.69;;;19.61;57.47
75991;BME280;64673;52.276;10.560;2023-07-13T08:20:06;100664.81;;;19.62;57.02
75991;BME280;64673;52.276;10.560;2023-07-13T08:22:31;100657.69;;;19.79;58.63
75991;BME280;64673;52.276;10.560;2023-07-13T08:24:57;100670.72;;;19.73;56.98
75991;BME280;64673;52.276;10.560;2023-07-13T08:27:24;100674.00;;;19.66;56.79
75991;BME280;64673;52.276;10.560;2023-07-13T08:29:50;100679.34;;;19.28;57.07
75991;BME280;64673;52.276;10.560;2023-07-13T08:32:17;100671.00;;;19.25;58.67
75991;BME280;64673;52.276;10.560;2023-07-13T08:34:43;100684.19;;;19.31;58.03
75991;BME280;64673;52.276;10.560;2023-07-13T08:37:08;100684.84;;;19.20;57.07
75991;BME280;64673;52.276;10.560;2023-07-13T08:39:34;100690.47;;;19.32;57.96
75991;BME280;64673;52.276;10.560;2023-07-13T08:42:03;100683.22;;;19.19;57.48
75991;BME280;64673;52.276;10.560;2023-07-13T08:47:32;100696.13;;;19.10;56.56
75991;BME280;64673;52.276;10.560;2023-07-13T08:50:00;100689.81;;;19.18;57.05
75991;BME280;64673;52.276;10.560;2023-07-13T08:52:38;100696.72;;;19.58;57.68
75991;BME280;64673;52.276;10.560;2023-07-13T08:55:26;100690.00;;;19.21;57.02
75991;BME280;64673;52.276;10.560;2023-07-13T08:58:01;100691.25;;;19.58;57.72
75991;BME280;64673;52.276;10.560;2023-07-13T09:00:46;100700.72;;;19.69;56.31
75991;BME280;64673;52.276;10.560;2023-07-13T09:03:23;100690.28;;;19.54;57.38
75991;BME280;64673;52.276;10.560;2023-07-13T09:05:53;100687.53;;;19.46;56.63
75991;BME280;64673;52.276;10.560;2023-07-13T09:11:00;100694.44;;;19.60;56.72
75991;BME280;64673;52.276;10.560;2023-07-13T09:16:04;100693.78;;;20.10;57.17
75991;BME280;64673;52.276;10.560;2023-07-13T09:18:37;100698.13;;;20.11;56.61
75991;BME280;64673;52.276;10.560;2023-07-13T09:23:31;100697.06;;;19.95;56.59
75991;BME280;64673;52.276;10.560;2023-07-13T09:26:02;100711.63;;;19.78;56.23
75991;BME280;64673;52.276;10.560;2023-07-13T09:28:34;100697.97;;;19.69;57.37
75991;BME280;64673;52.276;10.560;2023-07-13T09:31:16;100700.03;;;19.72;57.47
75991;BME280;64673;52.276;10.560;2023-07-13T09:33:42;100712.91;;;19.81;57.93
75991;BME280;64673;52.276;10.560;2023-07-13T09:36:34;100695.53;;;19.77;56.82
75991;BME280;64673;52.276;10.560;2023-07-13T09:39:10;100700.00;;;19.90;57.17
75991;BME280;64673;52.276;10.560;2023-07-13T09:41:48;100700.75;;;19.99;56.96
75991;BME280;64673;52.276;10.560;2023-07-13T09:44:18;100702.72;;;19.90;57.15
75991;BME280;64673;52.276;10.560;2023-07-13T09:46:55;100698.53;;;19.84;58.56
75991;BME280;64673;52.276;10.560;2023-07-13T09:49:28;100715.72;;;19.93;55.75
75991;BME280;64673;52.276;10.560;2023-07-13T09:52:03;100701.63;;;19.73;56.55
75991;BME280;64673;52.276;10.560;2023-07-13T09:54:29;100713.31;;;20.00;58.13
75991;BME280;64673;52.276;10.560;2023-07-13T09:56:56;100696.56;;;19.93;55.91
75991;BME280;64673;52.276;10.560;2023-07-13T09:59:29;100695.47;;;20.23;56.65
75991;BME280;64673;52.276;10.560;2023-07-13T10:01:55;100692.19;;;20.38;57.17
75991;BME280;64673;52.276;10.560;2023-07-13T10:04:34;100694.34;;;20.95;57.51
75991;BME280;64673;52.276;10.560;2023-07-13T10:07:08;100702.25;;;20.55;55.37
75991;BME280;64673;52.276;10.560;2023-07-13T10:09:33;100694.81;;;20.56;55.42
75991;BME280;64673;52.276;10.560;2023-07-13T10:11:59;100695.28;;;20.58;55.83
75991;BME280;64673;52.276;10.560;2023-07-13T10:14:24;100698.81;;;20.79;55.45
75991;BME280;64673;52.276;10.560;2023-07-13T10:16:58;100709.84;;;20.91;53.40
75991;BME280;64673;52.276;10.560;2023-07-13T10:19:26;100699.84;;;20.74;55.37
75991;BME280;64673;52.276;10.560;2023-07-13T10:21:56;100698.75;;;20.67;54.69
75991;BME280;64673;52.276;10.560;2023-07-13T10:24:26;100709.44;;;20.60;55.75
75991;BME280;64673;52.276;10.560;2023-07-13T10:27:01;100691.13;;;20.52;55.63
75991;BME280;64673;52.276;10.560;2023-07-13T10:29:34;100702.78;;;20.69;56.81
75991;BME280;64673;52.276;10.560;2023-07-13T10:32:01;100692.06;;;20.56;56.68
75991;BME280;64673;52.276;10.560;2023-07-13T10:34:27;100703.50;;;20.58;55.61
75991;BME280;64673;52.276;10.560;2023-07-13T10:36:53;100697.22;;;20.57;56.80
75991;BME280;64673;52.276;10.560;2023-07-13T10:39:25;100705.09;;;20.79;56.39
75991;BME280;64673;52.276;10.560;2023-07-13T10:42:00;100693.94;;;20.43;55.54
75991;BME280;64673;52.276;10.560;2023-07-13T10:44:31;100693.41;;;20.91;55.39
75991;BME280;64673;52.276;10.560;2023-07-13T10:47:02;100699.69;;;20.92;53.78
75991;BME280;64673;52.276;10.560;2023-07-13T10:49:32;100696.69;;;21.05;54.50
75991;BME280;64673;52.276;10.560;2023-07-13T10:51:58;100704.09;;;21.26;53.44
75991;BME280;64673;52.276;10.560;2023-07-13T10:59:35;100696.13;;;21.90;53.31
75991;BME280;64673;52.276;10.560;2023-07-13T11:04:41;100706.69;;;21.55;52.88
75991;BME280;64673;52.276;10.560;2023-07-13T11:07:19;100706.56;;;21.51;54.36
75991;BME280;64673;52.276;10.560;2023-07-13T11:09:49;100702.41;;;21.78;52.85
75991;BME280;64673;52.276;10.560;2023-07-13T11:22:53;100705.56;;;21.56;53.80
75991;BME280;64673;52.276;10.560;2023-07-13T11:25:33;100706.44;;;21.36;51.60
75991;BME280;64673;52.276;10.560;2023-07-13T11:30:39;100700.72;;;21.41;52.25
75991;BME280;64673;52.276;10.560;2023-07-13T11:33:24;100705.63;;;21.92;51.69
75991;BME280;64673;52.276;10.560;2023-07-13T11:36:06;100698.88;;;22.26;51.10
75991;BME280;64673;52.276;10.560;2023-07-13T11:38:43;100693.19;;;22.19;49.05
75991;BME280;64673;52.276;10.560;2023-07-13T11:43:43;100685.69;;;21.59;50.58
75991;BME280;64673;52.276;10.560;2023-07-13T11:46:19;100699.50;;;21.50;51.56
75991;BME280;64673;52.276;10.560;2023-07-13T11:48:48;100693.22;;;21.50;51.02
75991;BME280;64673;52.276;10.560;2023-07-13T11:51:24;100705.59;;;21.68;50.28
75991;BME280;64673;52.276;10.560;2023-07-13T11:53:53;100700.97;;;21.48;50.18
75991;BME280;64673;52.276;10.560;2023-07-13T11:56:20;100698.50;;;21.67;50.51
75991;BME280;64673;52.276;10.560;2023-07-13T11:58:53;100694.84;;;21.87;48.34
75991;BME280;64673;52.276;10.560;2023-07-13T12:01:21;100682.50;;;22.54;50.77
75991;BME280;64673;52.276;10.560;2023-07-13T12:03:48;100689.78;;;22.75;48.55
75991;BME280;64673;52.276;10.560;2023-07-13T12:06:31;100686.75;;;22.27;47.31
75991;BME280;64673;52.276;10.560;2023-07-13T12:09:01;100685.63;;;22.16;48.58
75991;BME280;64673;52.276;10.560;2023-07-13T12:11:29;100695.72;;;22.00;47.92
75991;BME280;64673;52.276;10.560;2023-07-13T12:13:54;100683.00;;;22.08;46.21
75991;BME280;64673;52.276;10.560;2023-07-13T12:18:55;100686.53;;;22.33;46.42
75991;BME280;64673;52.276;10.560;2023-07-13T12:21:22;100685.50;;;22.25;46.47
75991;BME280;64673;52.276;10.560;2023-07-13T12:23:50;100685.47;;;22.49;47.39
75991;BME280;64673;52.276;10.560;2023-07-13T12:26:17;100685.75;;;22.72;46.70
75991;BME280;64673;52.276;10.560;2023-07-13T12:28:47;100677.97;;;23.14;47.17
75991;BME280;64673;52.276;10.560;2023-07-13T12:31:35;100677.28;;;23.17;45.62
75991;BME280;64673;52.276;10.560;2023-07-13T12:34:17;100687.94;;;23.62;46.60
75991;BME280;64673;52.276;10.560;2023-07-13T12:36:59;100679.41;;;23.67;43.87
75991;BME280;64673;52.276;10.560;2023-07-13T12:39:32;100690.13;;;23.13;44.92
75991;BME280;64673;52.276;10.560;2023-07-13T12:42:24;100687.75;;;23.27;44.96
75991;BME280;64673;52.276;10.560;2023-07-13T12:44:58;100694.78;;;22.97;44.30
75991;BME280;64673;52.276;10.560;2023-07-13T12:47:25;100693.22;;;22.72;45.72
75991;BME280;64673;52.276;10.560;2023-07-13T12:49:57;100705.19;;;23.04;46.81
75991;BME280;64673;52.276;10.560;2023-07-13T12:52:33;100690.38;;;23.08;46.00
75991;BME280;64673;52.276;10.560;2023-07-13T12:55:16;100694.16;;;23.59;44.16
75991;BME280;64673;52.276;10.560;2023-07-13T13:00:35;100691.66;;;23.54;45.66
75991;BME280;64673;52.276;10.560;2023-07-13T13:08:44;100671.88;;;23.36;42.44
75991;BME280;64673;52.276;10.560;2023-07-13T13:11:10;100679.63;;;23.47;42.67
75991;BME280;64673;52.276;10.560;2023-07-13T13:13:36;100666.75;;;24.29;43.20
75991;BME280;64673;52.276;10.560;2023-07-13T13:16:14;100683.91;;;23.16;43.81
75991;BME280;64673;52.276;10.560;2023-07-13T13:18:42;100688.78;;;23.07;44.71
75991;BME280;64673;52.276;10.560;2023-07-13T13:21:09;100678.81;;;23.46;46.95
75991;BME280;64673;52.276;10.560;2023-07-13T13:23:34;100662.06;;;24.14;44.72
75991;BME280;64673;52.276;10.560;2023-07-13T13:26:00;100674.53;;;23.92;43.78
75991;BME280;64673;52.276;10.560;2023-07-13T13:28:26;100658.94;;;24.31;42.81